createdAt,value
2024-03-02T00:00:14.415Z,99842.50
2024-03-02T00:02:45.659Z,99833.81
2024-03-02T00:05:13.522Z,99822.84
2024-03-02T00:07:42.746Z,99830.44
2024-03-02T00:10:11.917Z,99821.03
2024-03-02T00:12:39.521Z,99829.53
2024-03-02T00:15:19.506Z,99841.50
2024-03-02T00:17:48.933Z,99846.41
2024-03-02T00:20:22.654Z,99849.69
2024-03-02T00:22:51.504Z,99852.19
2024-03-02T00:25:18.401Z,99865.72
2024-03-02T00:27:50.143Z,99869.97
2024-03-02T00:30:48.480Z,99878.47
2024-03-02T00:33:15.138Z,99883.44
2024-03-02T00:35:45.424Z,99905.53
2024-03-02T00:38:12.301Z,99914.16
2024-03-02T00:40:38.779Z,99912.56
2024-03-02T00:43:05.518Z,99924.59
2024-03-02T00:45:32.819Z,99942.63
2024-03-02T00:47:59.375Z,99938.44
2024-03-02T00:50:30.837Z,99937.69
2024-03-02T00:52:57.925Z,99930.28
2024-03-02T00:55:24.506Z,99929.53
2024-03-02T00:57:50.993Z,99936.59
2024-03-02T01:00:19.121Z,99943.66
2024-03-02T01:02:47.232Z,99955.00
2024-03-02T01:05:13.793Z,99945.97
2024-03-02T01:07:40.279Z,99957.25
2024-03-02T01:10:07.102Z,99956.56
2024-03-02T01:12:33.607Z,99956.78
2024-03-02T01:15:00.142Z,99962.06
2024-03-02T01:17:26.732Z,99947.84
2024-03-02T01:19:53.219Z,99946.31
2024-03-02T01:22:26.004Z,99949.06
2024-03-02T01:24:52.874Z,99957.78
2024-03-02T01:27:20.105Z,99961.44
2024-03-02T01:29:46.702Z,99976.84
2024-03-02T01:32:13.122Z,99965.97
2024-03-02T01:34:39.583Z,99965.97
2024-03-02T01:37:06.250Z,99960.97
2024-03-02T01:39:32.811Z,99959.34
2024-03-02T01:41:59.360Z,99975.56
2024-03-02T01:44:25.809Z,99967.94
2024-03-02T01:46:52.362Z,99966.31
2024-03-02T01:49:19.877Z,99968.91
2024-03-02T01:51:47.118Z,99979.16
2024-03-02T01:54:13.658Z,99981.75
2024-03-02T01:56:40.608Z,99984.31
2024-03-02T01:59:07.597Z,99974.22
2024-03-02T02:01:34.251Z,99975.94
2024-03-02T02:04:01.733Z,99976.06
2024-03-02T02:06:28.402Z,99976.09
2024-03-02T02:08:55.054Z,99960.00
2024-03-02T02:11:21.617Z,99976.22
2024-03-02T02:13:48.141Z,99974.53
2024-03-02T02:16:14.677Z,99985.69
2024-03-02T02:18:41.258Z,99981.50
2024-03-02T02:21:07.698Z,99975.63
2024-03-02T02:23:34.240Z,99980.78
2024-03-02T02:26:00.716Z,99986.00
2024-03-02T02:28:27.197Z,99971.72
2024-03-02T02:30:57.470Z,99971.78
2024-03-02T02:33:24.172Z,99972.78
2024-03-02T02:35:50.784Z,99966.91
2024-03-02T02:38:17.516Z,99971.19
2024-03-02T02:40:44.047Z,99980.63
2024-03-02T02:43:10.598Z,99989.28
2024-03-02T02:45:37.119Z,99982.50
2024-03-02T02:48:04.590Z,99980.00
2024-03-02T02:50:31.257Z,99984.31
2024-03-02T02:52:57.709Z,99981.03
2024-03-02T02:58:12.888Z,99987.91
2024-03-02T03:00:39.805Z,99994.00
2024-03-02T03:03:06.304Z,99987.22
2024-03-02T03:05:32.805Z,99994.03
2024-03-02T03:07:59.368Z,99985.63
2024-03-02T03:10:27.578Z,99983.13
2024-03-02T03:12:54.404Z,99986.53
2024-03-02T03:15:20.987Z,99991.69
2024-03-02T03:17:50.496Z,99984.09
2024-03-02T03:20:17.290Z,99986.66
2024-03-02T03:22:44.105Z,99982.41
2024-03-02T03:25:10.527Z,99990.22
2024-03-02T03:27:37.351Z,99996.25
2024-03-02T03:30:04.683Z,100000.56
2024-03-02T03:32:31.100Z,100002.28
2024-03-02T03:34:57.873Z,100004.84
2024-03-02T03:37:25.167Z,100008.38
2024-03-02T03:39:51.697Z,100000.78
2024-03-02T03:42:18.278Z,100004.22
2024-03-02T03:44:44.732Z,100003.34
2024-03-02T03:47:11.242Z,100004.16
2024-03-02T03:49:37.735Z,100002.47
2024-03-02T03:52:05.135Z,100016.88
2024-03-02T03:54:31.706Z,100021.03
2024-03-02T03:56:58.192Z,100015.88
2024-03-02T03:59:25.078Z,100014.94
2024-03-02T04:01:51.633Z,100013.19
2024-03-02T04:04:18.299Z,100009.75
2024-03-02T04:06:45.564Z,100008.03
2024-03-02T04:09:12.076Z,100018.19
2024-03-02T04:11:38.725Z,100016.44
2024-03-02T04:14:07.348Z,100016.41
2024-03-02T04:16:34.309Z,100024.06
2024-03-02T04:19:00.762Z,100030.84
2024-03-02T04:21:27.385Z,100028.28
2024-03-02T04:23:53.969Z,100027.47
2024-03-02T04:26:23.277Z,100026.59
2024-03-02T04:28:49.829Z,100023.19
2024-03-02T04:31:17.126Z,100023.13
2024-03-02T04:33:44.215Z,100029.91
2024-03-02T04:36:10.859Z,100029.91
2024-03-02T04:38:37.801Z,100035.00
2024-03-02T04:41:07.129Z,100035.88
2024-03-02T04:43:34.296Z,100040.13
2024-03-02T04:46:01.470Z,100045.16
2024-03-02T04:48:28.399Z,100040.94
2024-03-02T04:50:55.010Z,100049.50
2024-03-02T04:53:21.522Z,100051.19
2024-03-02T04:56:19.401Z,100052.03
2024-03-02T04:58:45.864Z,100058.78
2024-03-02T05:01:12.515Z,100061.34
2024-03-02T05:03:39.146Z,100064.81
2024-03-02T05:06:05.605Z,100061.41
2024-03-02T05:08:32.064Z,100061.41
2024-03-02T05:11:18.568Z,100063.13
2024-03-02T05:13:45.052Z,100061.41
2024-03-02T05:16:12.606Z,100062.25
2024-03-02T05:18:39.527Z,100071.59
2024-03-02T05:21:06.550Z,100069.09
2024-03-02T05:23:33.077Z,100068.28
2024-03-02T05:25:59.524Z,100061.50
2024-03-02T05:28:25.997Z,100060.66
2024-03-02T05:30:52.460Z,100069.19
2024-03-02T05:33:19.178Z,100070.91
2024-03-02T05:35:45.690Z,100078.53
2024-03-02T05:38:12.170Z,100075.06
2024-03-02T05:40:38.553Z,100070.81
2024-03-02T05:43:05.267Z,100063.31
2024-03-02T05:45:31.879Z,100062.63
2024-03-02T05:47:58.406Z,100068.84
2024-03-02T05:50:24.920Z,100071.63
2024-03-02T05:52:51.329Z,100070.81
2024-03-02T05:55:17.812Z,100069.13
2024-03-02T05:57:44.312Z,100072.50
2024-03-02T06:00:12.092Z,100079.22
2024-03-02T06:02:42.143Z,100083.41
2024-03-02T06:05:08.740Z,100081.72
2024-03-02T06:07:35.284Z,100081.72
2024-03-02T06:10:01.954Z,100082.59
2024-03-02T06:12:28.499Z,100084.41
2024-03-02T06:14:54.960Z,100098.88
2024-03-02T06:17:21.421Z,100095.50
2024-03-02T06:19:48.962Z,100097.22
2024-03-02T06:22:15.619Z,100097.25
2024-03-02T06:24:42.175Z,100101.56
2024-03-02T06:27:08.703Z,100112.59
2024-03-02T06:29:35.325Z,100106.75
2024-03-02T06:32:01.965Z,100116.16
2024-03-02T06:34:28.377Z,100115.34
2024-03-02T06:36:54.895Z,100122.91
2024-03-02T06:39:21.439Z,100122.84
2024-03-02T06:41:50.779Z,100127.00
2024-03-02T06:44:17.236Z,100127.84
2024-03-02T06:46:43.691Z,100126.88
2024-03-02T06:49:11.699Z,100125.09
2024-03-02T06:51:38.291Z,100119.88
2024-03-02T06:54:04.860Z,100122.41
2024-03-02T06:56:31.911Z,100118.94
2024-03-02T06:58:58.359Z,100128.25
2024-03-02T07:01:27.354Z,100125.78
2024-03-02T07:03:53.945Z,100125.81
2024-03-02T07:06:20.969Z,100125.03
2024-03-02T07:08:47.416Z,100119.97
2024-03-02T07:11:14.004Z,100131.97
2024-03-02T07:13:40.486Z,100126.84
2024-03-02T07:16:25.503Z,100121.66
2024-03-02T07:18:53.363Z,100129.25
2024-03-02T07:21:20.153Z,100125.75
2024-03-02T07:23:46.851Z,100123.06
2024-03-02T07:28:43.204Z,100136.53
2024-03-02T07:31:11.115Z,100135.56
2024-03-02T07:33:37.557Z,100141.41
2024-03-02T07:36:05.314Z,100137.00
2024-03-02T07:38:33.524Z,100144.53
2024-03-02T07:41:00.096Z,100143.56
2024-03-02T07:43:26.649Z,100145.91
2024-03-02T07:45:53.942Z,100142.34
2024-03-02T07:48:20.567Z,100151.84
2024-03-02T07:50:47.114Z,100153.88
2024-03-02T07:53:13.816Z,100152.50
2024-03-02T07:55:40.626Z,100149.94
2024-03-02T07:58:07.872Z,100154.22
2024-03-02T08:00:34.572Z,100155.53
2024-03-02T08:03:01.850Z,100158.19
2024-03-02T08:05:28.557Z,100160.00
2024-03-02T08:07:55.141Z,100161.88
2024-03-02T08:10:21.722Z,100166.03
2024-03-02T08:12:48.392Z,100171.84
2024-03-02T08:15:15.014Z,100170.13
2024-03-02T08:17:46.438Z,100171.91
2024-03-02T08:20:13.329Z,100170.22
2024-03-02T08:22:43.595Z,100168.41
2024-03-02T08:25:10.832Z,100173.16
2024-03-02T08:27:37.777Z,100167.28
2024-03-02T08:30:07.997Z,100170.28
2024-03-02T08:32:35.378Z,100174.84
2024-03-02T08:35:02.181Z,100167.53
2024-03-02T08:37:28.817Z,100164.09
2024-03-02T08:39:55.401Z,100169.50
2024-03-02T08:42:22.778Z,100169.28
2024-03-02T08:44:49.593Z,100167.78
2024-03-02T08:47:16.275Z,100176.84
2024-03-02T08:49:42.784Z,100175.38
2024-03-02T08:52:09.262Z,100171.00
2024-03-02T08:54:36.841Z,100165.50
2024-03-02T08:57:03.722Z,100161.91
2024-03-02T08:59:30.649Z,100168.75
2024-03-02T09:01:58.776Z,100163.56
2024-03-02T09:04:27.388Z,100176.66
2024-03-02T09:06:54.738Z,100168.88
2024-03-02T09:09:21.588Z,100165.88
2024-03-02T09:11:48.375Z,100170.59
2024-03-02T09:14:16.703Z,100161.97
2024-03-02T09:16:43.896Z,100170.69
2024-03-02T09:19:11.431Z,100162.81
2024-03-02T09:21:38.201Z,100171.63
2024-03-02T09:24:05.095Z,100163.66
2024-03-02T09:26:31.647Z,100171.81
2024-03-02T09:28:58.116Z,100172.94
2024-03-02T09:31:24.565Z,100169.16
2024-03-02T09:33:51.089Z,100162.47
2024-03-02T09:36:23.258Z,100166.84
2024-03-02T09:38:49.936Z,100172.06
2024-03-02T09:41:17.844Z,100178.00
2024-03-02T09:43:44.870Z,100184.63
2024-03-02T09:46:11.891Z,100175.25
2024-03-02T09:48:38.795Z,100181.66
2024-03-02T09:51:06.193Z,100188.22
2024-03-02T09:53:33.895Z,100178.25
2024-03-02T09:56:01.425Z,100179.44
2024-03-02T09:58:28.085Z,100179.09
2024-03-02T10:00:54.672Z,100184.94
2024-03-02T10:03:22.261Z,100188.97
2024-03-02T10:05:48.794Z,100186.47
2024-03-02T10:08:15.397Z,100185.34
2024-03-02T10:10:45.693Z,100182.00
2024-03-02T10:13:13.912Z,100178.38
2024-03-02T10:15:42.251Z,100181.44
2024-03-02T10:18:13.133Z,100176.06
2024-03-02T10:20:41.117Z,100175.56
2024-03-02T10:23:18.532Z,100177.97
2024-03-02T10:25:52.102Z,100180.25
2024-03-02T10:28:24.454Z,100184.06
2024-03-02T10:30:52.579Z,100186.25
2024-03-02T10:33:19.261Z,100182.06
2024-03-02T10:35:45.898Z,100184.78
2024-03-02T10:38:12.798Z,100172.75
2024-03-02T10:40:39.405Z,100179.19
2024-03-02T10:43:07.152Z,100172.84
2024-03-02T10:45:34.249Z,100154.09
2024-03-02T10:48:03.455Z,100160.84
2024-03-02T10:50:31.115Z,100157.13
2024-03-02T10:52:57.701Z,100150.00
2024-03-02T10:55:24.606Z,100160.91
2024-03-02T10:57:57.628Z,100143.50
2024-03-02T11:00:30.919Z,100141.59
2024-03-02T11:03:04.044Z,100142.19
2024-03-02T11:05:37.079Z,100148.22
2024-03-02T11:08:08.700Z,100146.94
2024-03-02T11:10:37.870Z,100148.28
2024-03-02T11:13:10.678Z,100143.66
2024-03-02T11:15:40.048Z,100150.66
2024-03-02T11:18:10.328Z,100148.53
2024-03-02T11:20:41.561Z,100150.69
2024-03-02T11:23:09.151Z,100148.19
2024-03-02T11:25:37.212Z,100158.66
2024-03-02T11:28:06.104Z,100161.66
2024-03-02T11:30:36.417Z,100156.00
2024-03-02T11:33:13.501Z,100149.56
2024-03-02T11:35:47.796Z,100142.78
2024-03-02T11:38:14.367Z,100143.91
2024-03-02T11:40:41.546Z,100136.94
2024-03-02T11:43:11.958Z,100133.69
2024-03-02T11:45:47.074Z,100139.03
2024-03-02T11:48:16.982Z,100135.97
2024-03-02T11:50:48.591Z,100136.25
2024-03-02T11:53:15.711Z,100124.31
2024-03-02T11:55:45.019Z,100127.16
2024-03-02T11:58:11.613Z,100115.81
2024-03-02T12:00:38.236Z,100118.56
2024-03-02T12:03:09.548Z,100127.72
2024-03-02T12:05:37.091Z,100131.03
2024-03-02T12:08:05.490Z,100123.88
2024-03-02T12:10:32.713Z,100118.03
2024-03-02T12:13:06.143Z,100106.63
2024-03-02T12:15:38.039Z,100105.56
2024-03-02T12:18:05.862Z,100098.81
2024-03-02T12:20:33.913Z,100097.84
2024-03-02T12:23:03.551Z,100097.22
2024-03-02T12:25:31.761Z,100090.16
2024-03-02T12:28:01.322Z,100092.56
2024-03-02T12:30:32.447Z,100095.03
2024-03-02T12:32:59.351Z,100099.13
2024-03-02T12:35:26.763Z,100086.59
2024-03-02T12:37:55.323Z,100087.91
2024-03-02T12:40:24.027Z,100096.97
2024-03-02T12:42:51.852Z,100090.50
2024-03-02T12:45:25.771Z,100078.44
2024-03-02T12:47:53.125Z,100075.94
2024-03-02T12:50:20.621Z,100073.06
2024-03-02T12:52:57.092Z,100069.53
2024-03-02T12:55:24.714Z,100056.19
2024-03-02T12:57:52.888Z,100059.09
2024-03-02T13:00:21.156Z,100056.34
2024-03-02T13:02:49.265Z,100052.78
2024-03-02T13:05:15.868Z,100056.84
2024-03-02T13:07:42.475Z,100060.75
2024-03-02T13:10:10.170Z,100066.00
2024-03-02T13:12:38.608Z,100058.09
2024-03-02T13:15:06.668Z,100059.75
2024-03-02T13:17:37.918Z,100057.00
2024-03-02T13:20:09.162Z,100067.22
2024-03-02T13:22:36.177Z,100066.31
2024-03-02T13:25:05.295Z,100062.50
2024-03-02T13:27:33.616Z,100063.59
2024-03-02T13:30:00.140Z,100063.75
2024-03-02T13:32:27.182Z,100049.41
2024-03-02T13:34:56.042Z,100051.38
2024-03-02T13:37:22.967Z,100052.28
2024-03-02T13:39:50.208Z,100060.19
2024-03-02T13:42:17.408Z,100053.78
2024-03-02T13:44:49.396Z,100052.53
2024-03-02T13:47:16.374Z,100049.53
2024-03-02T13:49:47.617Z,100047.56
2024-03-02T13:52:14.889Z,100048.38
2024-03-02T13:54:43.424Z,100049.97
2024-03-02T13:57:11.909Z,100051.13
2024-03-02T13:59:40.025Z,100037.25
2024-03-02T14:02:07.521Z,100045.47
2024-03-02T14:04:38.037Z,100035.44
2024-03-02T14:07:08.165Z,100032.44
2024-03-02T14:09:35.120Z,100027.88
2024-03-02T14:12:01.881Z,100017.75
2024-03-02T14:14:28.387Z,100029.84
2024-03-02T14:17:01.502Z,100017.31
2024-03-02T14:19:28.477Z,100013.16
2024-03-02T14:21:55.249Z,100013.31
2024-03-02T14:24:25.201Z,100005.44
2024-03-02T14:26:51.930Z,100001.47
2024-03-02T14:29:20.042Z,99995.06
2024-03-02T14:31:49.364Z,99986.09
2024-03-02T14:34:18.384Z,99983.03
2024-03-02T14:36:45.285Z,99977.47
2024-03-02T14:39:12.398Z,99967.56
2024-03-02T14:41:38.955Z,99962.91
2024-03-02T14:44:05.574Z,99968.66
2024-03-02T14:46:32.489Z,99967.41
2024-03-02T14:48:59.643Z,99971.44
2024-03-02T14:51:26.244Z,99970.63
2024-03-02T14:53:53.105Z,99972.38
2024-03-02T14:56:19.594Z,99973.19
2024-03-02T14:58:46.706Z,99969.78
2024-03-02T15:01:13.498Z,99968.72
2024-03-02T15:03:40.997Z,99968.53
2024-03-02T15:06:16.209Z,99964.09
2024-03-02T15:08:43.286Z,99964.88
2024-03-02T15:11:10.510Z,99976.72
2024-03-02T15:13:37.436Z,99963.75
2024-03-02T15:16:04.307Z,99974.75
2024-03-02T15:18:31.212Z,99975.22
2024-03-02T15:20:57.747Z,99980.91
2024-03-02T15:23:25.106Z,99969.72
2024-03-02T15:25:51.739Z,99967.13
2024-03-02T15:28:18.201Z,99964.38
2024-03-02T15:30:45.320Z,99960.81
2024-03-02T15:33:11.888Z,99973.00
2024-03-02T15:35:38.437Z,99976.59
2024-03-02T15:38:07.734Z,99971.88
2024-03-02T15:40:36.099Z,99972.81
2024-03-02T15:43:02.592Z,99971.00
2024-03-02T15:45:34.774Z,99974.91
2024-03-02T15:48:04.843Z,99969.34
2024-03-02T15:50:33.711Z,99978.31
2024-03-02T15:53:04.670Z,99968.25
2024-03-02T15:55:31.117Z,99968.09
2024-03-02T15:57:57.900Z,99971.44
2024-03-02T16:00:24.532Z,99973.31
2024-03-02T16:02:51.091Z,99965.28
2024-03-02T16:05:18.242Z,99953.25
2024-03-02T16:07:44.702Z,99958.47
2024-03-02T16:10:11.891Z,99943.94
2024-03-02T16:12:38.599Z,99946.41
2024-03-02T16:15:06.393Z,99937.38
2024-03-02T16:17:33.020Z,99931.00
2024-03-02T16:19:59.488Z,99937.47
2024-03-02T16:22:26.846Z,99938.91
2024-03-02T16:24:53.367Z,99937.31
2024-03-02T16:27:19.921Z,99935.66
2024-03-02T16:29:47.798Z,99938.50
2024-03-02T16:32:14.249Z,99939.56
2024-03-02T16:34:40.823Z,99932.75
2024-03-02T16:37:07.513Z,99932.03
2024-03-02T16:39:34.196Z,99921.56
2024-03-02T16:42:01.041Z,99937.81
2024-03-02T16:44:27.507Z,99930.69
2024-03-02T16:46:53.981Z,99933.19
2024-03-02T16:49:21.046Z,99933.28
2024-03-02T16:51:47.923Z,99933.34
2024-03-02T16:54:14.482Z,99924.88
2024-03-02T16:56:44.785Z,99935.31
2024-03-02T16:59:12.013Z,99930.28
2024-03-02T17:01:39.070Z,99925.47
2024-03-02T17:04:07.730Z,99931.69
2024-03-02T17:06:34.982Z,99928.41
2024-03-02T17:09:02.655Z,99929.59
2024-03-02T17:11:29.385Z,99927.16
2024-03-02T17:13:59.001Z,99930.75
2024-03-02T17:16:26.054Z,99937.94
2024-03-02T17:18:52.972Z,99938.28
2024-03-02T17:21:19.641Z,99937.59
2024-03-02T17:23:48.667Z,99937.91
2024-03-02T17:26:15.410Z,99943.38
2024-03-02T17:28:42.784Z,99951.16
2024-03-02T17:31:10.147Z,99941.13
2024-03-02T17:33:36.898Z,99951.47
2024-03-02T17:36:04.923Z,99947.31
2024-03-02T17:38:31.541Z,99958.66
2024-03-02T17:40:58.114Z,99964.69
2024-03-02T17:43:24.739Z,99957.84
2024-03-02T17:45:51.237Z,99959.44
2024-03-02T17:48:18.259Z,99957.44
2024-03-02T17:50:44.844Z,99964.81
2024-03-02T17:53:11.340Z,99959.38
2024-03-02T17:55:38.322Z,99966.09
2024-03-02T17:58:05.030Z,99970.19
2024-03-02T18:00:32.146Z,99969.59
2024-03-02T18:02:58.673Z,99978.88
2024-03-02T18:05:25.166Z,99986.41
2024-03-02T18:07:51.606Z,99978.69
2024-03-02T18:10:18.139Z,99983.03
2024-03-02T18:12:45.495Z,99982.03
2024-03-02T18:15:12.107Z,99978.56
2024-03-02T18:17:38.722Z,99979.47
2024-03-02T18:20:05.928Z,99976.06
2024-03-02T18:22:33.717Z,99980.28
2024-03-02T18:25:00.746Z,99982.69
2024-03-02T18:27:27.987Z,99984.44
2024-03-02T18:29:55.136Z,99978.50
2024-03-02T18:32:21.867Z,99980.06
2024-03-02T18:34:48.591Z,99974.09
2024-03-02T18:37:16.417Z,99983.56
2024-03-02T18:39:43.101Z,99974.09
2024-03-02T18:42:09.649Z,99983.41
2024-03-02T18:44:36.109Z,99986.03
2024-03-02T18:47:02.605Z,99977.56
2024-03-02T18:49:29.111Z,99977.81
2024-03-02T18:51:55.747Z,99977.06
2024-03-02T18:54:22.207Z,99987.34
2024-03-02T18:56:48.697Z,99980.53
2024-03-02T18:59:15.229Z,99984.09
2024-03-02T19:01:41.934Z,99975.56
2024-03-02T19:04:08.630Z,99985.06
2024-03-02T19:06:35.281Z,99982.38
2024-03-02T19:09:01.758Z,99976.13
2024-03-02T19:11:28.269Z,99972.81
2024-03-02T19:13:54.689Z,99976.22
2024-03-02T19:16:22.416Z,99978.03
2024-03-02T19:18:49.069Z,99972.09
2024-03-02T19:21:15.630Z,99963.69
2024-03-02T19:23:45.208Z,99962.78
2024-03-02T19:26:19.095Z,99961.88
2024-03-02T19:28:46.338Z,99965.44
2024-03-02T19:31:14.598Z,99960.38
2024-03-02T19:33:41.292Z,99954.19
2024-03-02T19:36:08.038Z,99950.84
2024-03-02T19:38:36.038Z,99951.91
2024-03-02T19:41:02.613Z,99954.53
2024-03-02T19:43:29.257Z,99959.09
2024-03-02T19:45:55.773Z,99951.72
2024-03-02T19:48:22.409Z,99939.25
2024-03-02T19:50:49.121Z,99954.13
2024-03-02T19:53:15.674Z,99950.94
2024-03-02T19:55:45.056Z,99942.56
2024-03-02T19:58:11.630Z,99938.25
2024-03-02T20:00:38.284Z,99934.00
2024-03-02T20:03:04.969Z,99932.56
2024-03-02T20:05:31.528Z,99930.25
2024-03-02T20:07:57.973Z,99926.03
2024-03-02T20:10:24.481Z,99924.50
2024-03-02T20:12:51.000Z,99928.97
2024-03-02T20:15:19.760Z,99923.22
2024-03-02T20:17:47.507Z,99922.38
2024-03-02T20:20:15.182Z,99922.53
2024-03-02T20:22:41.777Z,99922.75
2024-03-02T20:25:10.919Z,99919.66
2024-03-02T20:27:37.718Z,99927.31
2024-03-02T20:30:07.617Z,99922.28
2024-03-02T20:32:34.146Z,99925.94
2024-03-02T20:35:00.843Z,99931.16
2024-03-02T20:37:28.879Z,99921.16
2024-03-02T20:39:59.460Z,99929.00
2024-03-02T20:42:26.802Z,99925.91
2024-03-02T20:44:53.453Z,99927.09
2024-03-02T20:47:19.889Z,99923.38
2024-03-02T20:49:46.547Z,99924.56
2024-03-02T20:52:13.084Z,99934.91
2024-03-02T20:54:39.971Z,99939.31
2024-03-02T20:57:07.046Z,99933.59
2024-03-02T20:59:34.790Z,99933.19
2024-03-02T21:02:01.599Z,99940.09
2024-03-02T21:04:28.152Z,99931.09
2024-03-02T21:06:55.106Z,99942.53
2024-03-02T21:09:21.716Z,99940.66
2024-03-02T21:11:49.584Z,99939.56
2024-03-02T21:14:16.315Z,99941.81
2024-03-02T21:16:43.455Z,99937.59
2024-03-02T21:19:10.559Z,99945.09
2024-03-02T21:21:39.139Z,99945.03
2024-03-02T21:24:05.917Z,99957.00
2024-03-02T21:26:32.512Z,99950.09
2024-03-02T21:28:58.973Z,99948.28
2024-03-02T21:31:25.446Z,99942.94
2024-03-02T21:33:51.912Z,99952.78
2024-03-02T21:36:18.541Z,99954.16
2024-03-02T21:38:45.121Z,99956.22
2024-03-02T21:41:11.591Z,99955.19
2024-03-02T21:43:38.541Z,99967.56
2024-03-02T21:46:05.095Z,99960.66
2024-03-02T21:48:31.658Z,99965.25
2024-03-02T21:50:58.265Z,99960.66
2024-03-02T21:53:24.769Z,99968.16
2024-03-02T21:55:51.229Z,99964.56
2024-03-02T21:58:17.794Z,99964.31
2024-03-02T22:00:44.333Z,99962.47
2024-03-02T22:03:10.896Z,99959.84
2024-03-02T22:05:37.720Z,99966.66
2024-03-02T22:08:04.745Z,99964.81
2024-03-02T22:10:31.250Z,99964.91
2024-03-02T22:12:57.916Z,99963.31
2024-03-02T22:15:24.486Z,99968.81
2024-03-02T22:17:51.934Z,99967.38
2024-03-02T22:20:18.439Z,99966.41
2024-03-02T22:22:45.046Z,99965.66
2024-03-02T22:25:11.714Z,99960.28
2024-03-02T22:27:41.951Z,99963.00
2024-03-02T22:30:09.351Z,99961.28
2024-03-02T22:32:36.016Z,99961.03
2024-03-02T22:35:05.021Z,99956.84
2024-03-02T22:37:31.545Z,99961.28
2024-03-02T22:39:58.111Z,99958.78
2024-03-02T22:42:24.630Z,99953.88
2024-03-02T22:44:51.131Z,99954.84
2024-03-02T22:47:17.670Z,99953.50
2024-03-02T22:49:44.250Z,99952.22
2024-03-02T22:52:10.733Z,99948.44
2024-03-02T22:54:37.695Z,99952.84
2024-03-02T22:57:04.547Z,99948.53
2024-03-02T22:59:31.113Z,99949.41
2024-03-02T23:01:57.692Z,99953.88
2024-03-02T23:04:24.302Z,99951.41
2024-03-02T23:06:51.256Z,99948.75
2024-03-02T23:09:17.727Z,99945.34
2024-03-02T23:11:44.194Z,99942.03
2024-03-02T23:14:11.437Z,99939.44
2024-03-02T23:16:40.084Z,99948.97
2024-03-02T23:19:06.802Z,99937.84
2024-03-02T23:21:35.690Z,99933.56
2024-03-02T23:24:02.191Z,99942.09
2024-03-02T23:26:28.729Z,99944.44
2024-03-02T23:28:55.219Z,99940.00
2024-03-02T23:31:21.683Z,99948.44
2024-03-02T23:33:50.109Z,99938.03
2024-03-02T23:36:16.554Z,99942.50
2024-03-02T23:38:43.013Z,99941.56
2024-03-02T23:41:11.173Z,99944.00
2024-03-02T23:43:38.406Z,99944.81
2024-03-02T23:46:06.040Z,99942.19
2024-03-02T23:48:32.552Z,99940.34
2024-03-02T23:50:58.965Z,99940.34
2024-03-02T23:53:25.376Z,99942.34
2024-03-02T23:55:53.089Z,99945.88
2024-03-02T23:58:20.367Z,99936.56
